sensor_id;sensor_type;location;lat;lon;timestamp;P1;durP1;ratioP1;P2;durP2;ratioP2
28266;SDS011;15525;45.568;5.448;2023-09-19T00:00:33;9.10;;;3.17;;
28266;SDS011;15525;45.568;5.448;2023-09-19T00:02:59;7.32;;;3.05;;
28266;SDS011;15525;45.568;5.448;2023-09-19T00:05:25;7.13;;;3.47;;
28266;SDS011;15525;45.568;5.448;2023-09-19T00:07:53;13.52;;;3.58;;
28266;SDS011;15525;45.568;5.448;2023-09-19T00:10:22;12.80;;;3.67;;
28266;SDS011;15525;45.568;5.448;2023-09-19T00:12:49;9.30;;;3.67;;
28266;SDS011;15525;45.568;5.448;2023-09-19T00:15:17;6.80;;;3.05;;
28266;SDS011;15525;45.568;5.448;2023-09-19T00:17:43;7.05;;;3.63;;
28266;SDS011;15525;45.568;5.448;2023-09-19T00:20:08;9.98;;;3.70;;
28266;SDS011;15525;45.568;5.448;2023-09-19T00:22:41;9.57;;;4.30;;
28266;SDS011;15525;45.568;5.448;2023-09-19T00:25:10;7.43;;;2.85;;
28266;SDS011;15525;45.568;5.448;2023-09-19T00:27:39;11.27;;;3.30;;
28266;SDS011;15525;45.568;5.448;2023-09-19T00:30:07;8.45;;;3.35;;
28266;SDS011;15525;45.568;5.448;2023-09-19T00:32:39;7.50;;;3.20;;
28266;SDS011;15525;45.568;5.448;2023-09-19T00:35:05;6.22;;;3.00;;
28266;SDS011;15525;45.568;5.448;2023-09-19T00:37:31;9.90;;;3.22;;
28266;SDS011;15525;45.568;5.448;2023-09-19T00:39:56;5.05;;;3.15;;
28266;SDS011;15525;45.568;5.448;2023-09-19T00:42:21;6.80;;;2.85;;
28266;SDS011;15525;45.568;5.448;2023-09-19T00:44:47;6.40;;;3.05;;
28266;SDS011;15525;45.568;5.448;2023-09-19T00:47:16;9.68;;;3.60;;
28266;SDS011;15525;45.568;5.448;2023-09-19T00:49:42;7.93;;;3.03;;
28266;SDS011;15525;45.568;5.448;2023-09-19T00:52:09;11.82;;;3.70;;
28266;SDS011;15525;45.568;5.448;2023-09-19T00:54:36;5.30;;;3.40;;
28266;SDS011;15525;45.568;5.448;2023-09-19T00:57:02;9.07;;;3.55;;
28266;SDS011;15525;45.568;5.448;2023-09-19T00:59:28;6.80;;;3.55;;
28266;SDS011;15525;45.568;5.448;2023-09-19T01:01:55;7.57;;;3.47;;
28266;SDS011;15525;45.568;5.448;2023-09-19T01:04:22;5.57;;;3.15;;
28266;SDS011;15525;45.568;5.448;2023-09-19T01:06:47;5.78;;;3.13;;
28266;SDS011;15525;45.568;5.448;2023-09-19T01:09:18;7.25;;;3.40;;
28266;SDS011;15525;45.568;5.448;2023-09-19T01:11:45;7.35;;;3.38;;
28266;SDS011;15525;45.568;5.448;2023-09-19T01:17:00;8.43;;;3.47;;
28266;SDS011;15525;45.568;5.448;2023-09-19T01:20:19;10.80;;;3.95;;
28266;SDS011;15525;45.568;5.448;2023-09-19T01:25:27;10.73;;;4.10;;
28266;SDS011;15525;45.568;5.448;2023-09-19T01:28:20;7.68;;;3.45;;
28266;SDS011;15525;45.568;5.448;2023-09-19T01:30:51;8.45;;;4.00;;
28266;SDS011;15525;45.568;5.448;2023-09-19T01:33:25;6.90;;;3.50;;
28266;SDS011;15525;45.568;5.448;2023-09-19T01:35:53;7.35;;;3.30;;
28266;SDS011;15525;45.568;5.448;2023-09-19T01:38:20;8.15;;;3.83;;
28266;SDS011;15525;45.568;5.448;2023-09-19T01:40:48;11.50;;;3.55;;
28266;SDS011;15525;45.568;5.448;2023-09-19T01:43:27;8.93;;;3.97;;
28266;SDS011;15525;45.568;5.448;2023-09-19T01:46:36;7.93;;;3.40;;
28266;SDS011;15525;45.568;5.448;2023-09-19T01:49:48;11.05;;;3.58;;
28266;SDS011;15525;45.568;5.448;2023-09-19T01:54:50;8.85;;;3.90;;
28266;SDS011;15525;45.568;5.448;2023-09-19T01:57:27;7.72;;;3.97;;
28266;SDS011;15525;45.568;5.448;2023-09-19T01:59:59;9.10;;;4.13;;
28266;SDS011;15525;45.568;5.448;2023-09-19T02:02:32;8.90;;;3.83;;
28266;SDS011;15525;45.568;5.448;2023-09-19T02:05:03;6.65;;;3.70;;
28266;SDS011;15525;45.568;5.448;2023-09-19T02:07:29;7.40;;;4.53;;
28266;SDS011;15525;45.568;5.448;2023-09-19T02:09:57;8.45;;;3.70;;
28266;SDS011;15525;45.568;5.448;2023-09-19T02:12:25;6.97;;;3.72;;
28266;SDS011;15525;45.568;5.448;2023-09-19T02:14:51;6.00;;;3.47;;
28266;SDS011;15525;45.568;5.448;2023-09-19T02:17:17;8.57;;;3.65;;
28266;SDS011;15525;45.568;5.448;2023-09-19T02:19:42;4.88;;;3.72;;
28266;SDS011;15525;45.568;5.448;2023-09-19T02:22:08;5.53;;;3.35;;
28266;SDS011;15525;45.568;5.448;2023-09-19T02:24:35;11.07;;;4.00;;
28266;SDS011;15525;45.568;5.448;2023-09-19T02:27:01;10.02;;;4.10;;
28266;SDS011;15525;45.568;5.448;2023-09-19T02:29:29;10.88;;;3.58;;
28266;SDS011;15525;45.568;5.448;2023-09-19T02:31:55;13.60;;;5.25;;
28266;SDS011;15525;45.568;5.448;2023-09-19T02:34:21;7.78;;;3.70;;
28266;SDS011;15525;45.568;5.448;2023-09-19T02:36:47;9.57;;;3.53;;
28266;SDS011;15525;45.568;5.448;2023-09-19T02:39:12;6.43;;;3.78;;
28266;SDS011;15525;45.568;5.448;2023-09-19T02:41:38;9.25;;;3.55;;
28266;SDS011;15525;45.568;5.448;2023-09-19T02:44:03;10.82;;;3.40;;
28266;SDS011;15525;45.568;5.448;2023-09-19T02:46:32;8.98;;;3.75;;
28266;SDS011;15525;45.568;5.448;2023-09-19T02:48:58;8.18;;;3.80;;
28266;SDS011;15525;45.568;5.448;2023-09-19T02:51:23;13.63;;;4.28;;
28266;SDS011;15525;45.568;5.448;2023-09-19T02:53:49;9.30;;;3.50;;
28266;SDS011;15525;45.568;5.448;2023-09-19T02:56:17;5.40;;;3.67;;
28266;SDS011;15525;45.568;5.448;2023-09-19T02:58:43;10.57;;;3.95;;
28266;SDS011;15525;45.568;5.448;2023-09-19T03:01:09;5.25;;;3.47;;
28266;SDS011;15525;45.568;5.448;2023-09-19T03:03:37;10.63;;;3.80;;
28266;SDS011;15525;45.568;5.448;2023-09-19T03:06:04;7.68;;;3.58;;
28266;SDS011;15525;45.568;5.448;2023-09-19T03:08:30;10.27;;;4.00;;
28266;SDS011;15525;45.568;5.448;2023-09-19T03:10:56;11.15;;;4.35;;
28266;SDS011;15525;45.568;5.448;2023-09-19T03:13:21;9.00;;;3.67;;
28266;SDS011;15525;45.568;5.448;2023-09-19T03:15:47;10.80;;;4.03;;
28266;SDS011;15525;45.568;5.448;2023-09-19T03:18:15;10.00;;;4.55;;
28266;SDS011;15525;45.568;5.448;2023-09-19T03:20:41;6.03;;;3.70;;
28266;SDS011;15525;45.568;5.448;2023-09-19T03:23:06;6.93;;;4.10;;
28266;SDS011;15525;45.568;5.448;2023-09-19T03:25:36;8.63;;;4.20;;
28266;SDS011;15525;45.568;5.448;2023-09-19T03:28:01;7.50;;;3.90;;
28266;SDS011;15525;45.568;5.448;2023-09-19T03:30:30;8.10;;;3.85;;
28266;SDS011;15525;45.568;5.448;2023-09-19T03:32:57;9.88;;;4.03;;
28266;SDS011;15525;45.568;5.448;2023-09-19T03:35:23;7.20;;;4.07;;
28266;SDS011;15525;45.568;5.448;2023-09-19T03:37:48;9.95;;;4.00;;
28266;SDS011;15525;45.568;5.448;2023-09-19T03:40:14;9.32;;;4.07;;
28266;SDS011;15525;45.568;5.448;2023-09-19T03:42:41;10.10;;;4.13;;
28266;SDS011;15525;45.568;5.448;2023-09-19T03:45:07;7.35;;;4.03;;
28266;SDS011;15525;45.568;5.448;2023-09-19T03:47:37;9.10;;;4.10;;
28266;SDS011;15525;45.568;5.448;2023-09-19T03:50:04;8.98;;;3.90;;
28266;SDS011;15525;45.568;5.448;2023-09-19T03:52:30;7.13;;;4.28;;
28266;SDS011;15525;45.568;5.448;2023-09-19T03:54:56;12.15;;;4.55;;
28266;SDS011;15525;45.568;5.448;2023-09-19T03:57:21;8.93;;;4.07;;
28266;SDS011;15525;45.568;5.448;2023-09-19T03:59:46;9.25;;;4.90;;
28266;SDS011;15525;45.568;5.448;2023-09-19T04:02:12;7.50;;;4.25;;
28266;SDS011;15525;45.568;5.448;2023-09-19T04:04:47;9.43;;;4.75;;
28266;SDS011;15525;45.568;5.448;2023-09-19T04:07:13;8.63;;;4.15;;
28266;SDS011;15525;45.568;5.448;2023-09-19T04:09:38;8.20;;;4.57;;
28266;SDS011;15525;45.568;5.448;2023-09-19T04:12:04;7.25;;;3.80;;
28266;SDS011;15525;45.568;5.448;2023-09-19T04:14:30;6.03;;;3.13;;
28266;SDS011;15525;45.568;5.448;2023-09-19T04:16:55;5.10;;;2.97;;
28266;SDS011;15525;45.568;5.448;2023-09-19T04:19:21;5.90;;;3.00;;
28266;SDS011;15525;45.568;5.448;2023-09-19T04:21:47;5.00;;;2.28;;
28266;SDS011;15525;45.568;5.448;2023-09-19T04:24:12;6.00;;;2.45;;
28266;SDS011;15525;45.568;5.448;2023-09-19T04:26:38;4.40;;;2.30;;
28266;SDS011;15525;45.568;5.448;2023-09-19T04:29:04;4.10;;;2.33;;
28266;SDS011;15525;45.568;5.448;2023-09-19T04:31:30;2.63;;;2.25;;
28266;SDS011;15525;45.568;5.448;2023-09-19T04:33:56;3.45;;;2.10;;
28266;SDS011;15525;45.568;5.448;2023-09-19T04:36:25;2.00;;;1.80;;
28266;SDS011;15525;45.568;5.448;2023-09-19T04:38:51;4.13;;;1.77;;
28266;SDS011;15525;45.568;5.448;2023-09-19T04:41:16;2.55;;;1.75;;
28266;SDS011;15525;45.568;5.448;2023-09-19T04:43:42;2.85;;;1.63;;
28266;SDS011;15525;45.568;5.448;2023-09-19T04:46:07;2.10;;;1.58;;
28266;SDS011;15525;45.568;5.448;2023-09-19T04:48:33;2.80;;;1.88;;
28266;SDS011;15525;45.568;5.448;2023-09-19T04:50:59;2.30;;;1.70;;
28266;SDS011;15525;45.568;5.448;2023-09-19T04:53:25;2.17;;;1.80;;
28266;SDS011;15525;45.568;5.448;2023-09-19T04:55:51;3.78;;;2.00;;
28266;SDS011;15525;45.568;5.448;2023-09-19T04:58:20;3.47;;;1.90;;
28266;SDS011;15525;45.568;5.448;2023-09-19T05:00:46;4.25;;;2.00;;
28266;SDS011;15525;45.568;5.448;2023-09-19T05:03:12;5.78;;;2.00;;
28266;SDS011;15525;45.568;5.448;2023-09-19T05:05:37;2.90;;;2.05;;
28266;SDS011;15525;45.568;5.448;2023-09-19T05:08:04;3.30;;;1.67;;
28266;SDS011;15525;45.568;5.448;2023-09-19T05:10:30;3.08;;;1.98;;
28266;SDS011;15525;45.568;5.448;2023-09-19T05:12:57;3.00;;;1.77;;
28266;SDS011;15525;45.568;5.448;2023-09-19T05:15:22;5.22;;;1.63;;
28266;SDS011;15525;45.568;5.448;2023-09-19T05:17:51;4.53;;;2.08;;
28266;SDS011;15525;45.568;5.448;2023-09-19T05:20:19;3.88;;;1.98;;
28266;SDS011;15525;45.568;5.448;2023-09-19T05:23:03;3.58;;;2.13;;
28266;SDS011;15525;45.568;5.448;2023-09-19T05:25:32;5.95;;;2.28;;
28266;SDS011;15525;45.568;5.448;2023-09-19T05:28:03;6.07;;;2.30;;
28266;SDS011;15525;45.568;5.448;2023-09-19T05:30:30;4.45;;;2.10;;
28266;SDS011;15525;45.568;5.448;2023-09-19T05:32:57;7.65;;;2.30;;
28266;SDS011;15525;45.568;5.448;2023-09-19T05:35:23;2.80;;;1.85;;
28266;SDS011;15525;45.568;5.448;2023-09-19T05:37:52;2.45;;;1.77;;
28266;SDS011;15525;45.568;5.448;2023-09-19T05:40:18;2.38;;;1.60;;
28266;SDS011;15525;45.568;5.448;2023-09-19T05:42:44;3.58;;;1.77;;
28266;SDS011;15525;45.568;5.448;2023-09-19T05:45:10;3.70;;;1.83;;
28266;SDS011;15525;45.568;5.448;2023-09-19T05:47:42;3.40;;;1.92;;
28266;SDS011;15525;45.568;5.448;2023-09-19T05:50:08;2.67;;;1.85;;
28266;SDS011;15525;45.568;5.448;2023-09-19T05:52:35;3.25;;;1.80;;
28266;SDS011;15525;45.568;5.448;2023-09-19T05:55:02;5.20;;;2.33;;
28266;SDS011;15525;45.568;5.448;2023-09-19T05:57:32;3.15;;;1.60;;
28266;SDS011;15525;45.568;5.448;2023-09-19T05:59:58;5.25;;;1.90;;
28266;SDS011;15525;45.568;5.448;2023-09-19T06:02:23;2.72;;;1.90;;
28266;SDS011;15525;45.568;5.448;2023-09-19T06:04:52;5.30;;;1.95;;
28266;SDS011;15525;45.568;5.448;2023-09-19T06:07:18;3.65;;;1.70;;
28266;SDS011;15525;45.568;5.448;2023-09-19T06:09:43;2.80;;;1.95;;
28266;SDS011;15525;45.568;5.448;2023-09-19T06:12:09;1.70;;;1.60;;
28266;SDS011;15525;45.568;5.448;2023-09-19T06:14:34;4.22;;;1.90;;
28266;SDS011;15525;45.568;5.448;2023-09-19T06:16:59;3.70;;;1.70;;
28266;SDS011;15525;45.568;5.448;2023-09-19T06:19:25;3.75;;;1.77;;
28266;SDS011;15525;45.568;5.448;2023-09-19T06:21:52;3.65;;;1.60;;
28266;SDS011;15525;45.568;5.448;2023-09-19T06:24:19;4.80;;;1.70;;
28266;SDS011;15525;45.568;5.448;2023-09-19T06:26:44;2.95;;;1.80;;
28266;SDS011;15525;45.568;5.448;2023-09-19T06:29:10;3.53;;;1.80;;
28266;SDS011;15525;45.568;5.448;2023-09-19T06:31:35;2.90;;;1.80;;
28266;SDS011;15525;45.568;5.448;2023-09-19T06:34:01;5.57;;;1.65;;
28266;SDS011;15525;45.568;5.448;2023-09-19T06:36:28;3.85;;;1.80;;
28266;SDS011;15525;45.568;5.448;2023-09-19T06:38:53;3.65;;;1.65;;
28266;SDS011;15525;45.568;5.448;2023-09-19T06:41:19;3.35;;;1.58;;
28266;SDS011;15525;45.568;5.448;2023-09-19T06:43:46;3.38;;;1.50;;
28266;SDS011;15525;45.568;5.448;2023-09-19T06:46:11;4.30;;;1.67;;
28266;SDS011;15525;45.568;5.448;2023-09-19T06:48:37;3.70;;;1.55;;
28266;SDS011;15525;45.568;5.448;2023-09-19T06:51:03;3.22;;;1.70;;
28266;SDS011;15525;45.568;5.448;2023-09-19T06:53:30;2.38;;;1.60;;
28266;SDS011;15525;45.568;5.448;2023-09-19T06:55:57;2.00;;;1.42;;
28266;SDS011;15525;45.568;5.448;2023-09-19T06:58:23;2.25;;;1.55;;
28266;SDS011;15525;45.568;5.448;2023-09-19T07:00:48;4.53;;;1.52;;
28266;SDS011;15525;45.568;5.448;2023-09-19T07:03:18;2.80;;;1.70;;
28266;SDS011;15525;45.568;5.448;2023-09-19T07:05:46;3.30;;;1.83;;
28266;SDS011;15525;45.568;5.448;2023-09-19T07:08:12;4.18;;;2.08;;
28266;SDS011;15525;45.568;5.448;2023-09-19T07:10:38;5.13;;;1.73;;
28266;SDS011;15525;45.568;5.448;2023-09-19T07:13:06;2.60;;;1.60;;
28266;SDS011;15525;45.568;5.448;2023-09-19T07:15:35;2.55;;;1.70;;
28266;SDS011;15525;45.568;5.448;2023-09-19T07:18:04;4.28;;;2.10;;
28266;SDS011;15525;45.568;5.448;2023-09-19T07:20:31;2.70;;;2.05;;
28266;SDS011;15525;45.568;5.448;2023-09-19T07:23:00;4.90;;;2.22;;
28266;SDS011;15525;45.568;5.448;2023-09-19T07:25:29;4.00;;;1.90;;
28266;SDS011;15525;45.568;5.448;2023-09-19T07:27:55;3.38;;;2.00;;
28266;SDS011;15525;45.568;5.448;2023-09-19T07:30:25;3.53;;;1.88;;
28266;SDS011;15525;45.568;5.448;2023-09-19T07:32:51;3.75;;;1.83;;
28266;SDS011;15525;45.568;5.448;2023-09-19T07:35:17;2.28;;;2.00;;
28266;SDS011;15525;45.568;5.448;2023-09-19T07:37:45;4.65;;;2.20;;
28266;SDS011;15525;45.568;5.448;2023-09-19T07:40:15;4.22;;;1.90;;
28266;SDS011;15525;45.568;5.448;2023-09-19T07:42:40;4.22;;;1.75;;
28266;SDS011;15525;45.568;5.448;2023-09-19T07:45:09;3.72;;;1.70;;
28266;SDS011;15525;45.568;5.448;2023-09-19T07:47:39;4.63;;;1.70;;
28266;SDS011;15525;45.568;5.448;2023-09-19T07:50:10;3.35;;;2.08;;
28266;SDS011;15525;45.568;5.448;2023-09-19T07:52:36;3.05;;;1.52;;
28266;SDS011;15525;45.568;5.448;2023-09-19T07:55:04;4.00;;;1.67;;
28266;SDS011;15525;45.568;5.448;2023-09-19T07:57:33;2.97;;;1.60;;
28266;SDS011;15525;45.568;5.448;2023-09-19T07:59:59;4.07;;;1.73;;
28266;SDS011;15525;45.568;5.448;2023-09-19T08:02:25;5.10;;;1.85;;
28266;SDS011;15525;45.568;5.448;2023-09-19T08:04:51;2.95;;;1.45;;
28266;SDS011;15525;45.568;5.448;2023-09-19T08:07:17;5.03;;;1.80;;
28266;SDS011;15525;45.568;5.448;2023-09-19T08:09:43;2.90;;;1.45;;
28266;SDS011;15525;45.568;5.448;2023-09-19T08:12:11;4.35;;;1.60;;
28266;SDS011;15525;45.568;5.448;2023-09-19T08:14:36;3.00;;;1.60;;
28266;SDS011;15525;45.568;5.448;2023-09-19T08:17:06;5.00;;;1.80;;
28266;SDS011;15525;45.568;5.448;2023-09-19T08:19:33;2.83;;;1.55;;
28266;SDS011;15525;45.568;5.448;2023-09-19T08:21:58;3.78;;;1.63;;
28266;SDS011;15525;45.568;5.448;2023-09-19T08:24:27;5.53;;;1.90;;
28266;SDS011;15525;45.568;5.448;2023-09-19T08:26:57;3.90;;;1.80;;
28266;SDS011;15525;45.568;5.448;2023-09-19T08:29:23;3.22;;;1.48;;
28266;SDS011;15525;45.568;5.448;2023-09-19T08:31:55;5.50;;;1.40;;
28266;SDS011;15525;45.568;5.448;2023-09-19T08:34:22;1.83;;;1.30;;
28266;SDS011;15525;45.568;5.448;2023-09-19T08:36:52;2.25;;;1.30;;
28266;SDS011;15525;45.568;5.448;2023-09-19T08:39:21;1.90;;;1.45;;
28266;SDS011;15525;45.568;5.448;2023-09-19T08:41:47;3.65;;;1.63;;
28266;SDS011;15525;45.568;5.448;2023-09-19T08:44:13;3.42;;;1.60;;
28266;SDS011;15525;45.568;5.448;2023-09-19T08:46:39;2.95;;;1.63;;
28266;SDS011;15525;45.568;5.448;2023-09-19T08:52:22;1.90;;;1.48;;
28266;SDS011;15525;45.568;5.448;2023-09-19T08:54:52;1.83;;;1.27;;
28266;SDS011;15525;45.568;5.448;2023-09-19T08:57:24;3.33;;;1.33;;
28266;SDS011;15525;45.568;5.448;2023-09-19T08:59:54;3.28;;;1.80;;
28266;SDS011;15525;45.568;5.448;2023-09-19T09:02:21;6.78;;;1.70;;
28266;SDS011;15525;45.568;5.448;2023-09-19T09:04:48;4.22;;;2.00;;
28266;SDS011;15525;45.568;5.448;2023-09-19T09:07:15;3.80;;;1.70;;
28266;SDS011;15525;45.568;5.448;2023-09-19T09:09:42;2.10;;;1.65;;
28266;SDS011;15525;45.568;5.448;2023-09-19T09:12:12;1.77;;;1.67;;
28266;SDS011;15525;45.568;5.448;2023-09-19T09:14:47;4.20;;;1.65;;
28266;SDS011;15525;45.568;5.448;2023-09-19T09:17:15;3.72;;;1.65;;
28266;SDS011;15525;45.568;5.448;2023-09-19T09:19:45;4.60;;;2.20;;
28266;SDS011;15525;45.568;5.448;2023-09-19T09:22:12;2.92;;;2.00;;
28266;SDS011;15525;45.568;5.448;2023-09-19T09:24:38;2.97;;;2.00;;
28266;SDS011;15525;45.568;5.448;2023-09-19T09:27:19;3.08;;;1.90;;
28266;SDS011;15525;45.568;5.448;2023-09-19T09:29:48;3.47;;;2.03;;
28266;SDS011;15525;45.568;5.448;2023-09-19T09:32:21;2.83;;;1.90;;
28266;SDS011;15525;45.568;5.448;2023-09-19T09:34:54;4.75;;;2.10;;
28266;SDS011;15525;45.568;5.448;2023-09-19T09:37:22;7.30;;;2.30;;
28266;SDS011;15525;45.568;5.448;2023-09-19T09:39:53;4.25;;;2.25;;
28266;SDS011;15525;45.568;5.448;2023-09-19T09:45:21;3.88;;;2.40;;
28266;SDS011;15525;45.568;5.448;2023-09-19T09:48:02;3.67;;;2.45;;
28266;SDS011;15525;45.568;5.448;2023-09-19T09:50:29;2.88;;;2.28;;
28266;SDS011;15525;45.568;5.448;2023-09-19T09:53:21;5.07;;;2.80;;
28266;SDS011;15525;45.568;5.448;2023-09-19T09:56:00;4.20;;;3.70;;
28266;SDS011;15525;45.568;5.448;2023-09-19T09:58:36;7.45;;;3.83;;
28266;SDS011;15525;45.568;5.448;2023-09-19T10:01:13;6.43;;;3.53;;
28266;SDS011;15525;45.568;5.448;2023-09-19T10:03:41;4.55;;;3.55;;
28266;SDS011;15525;45.568;5.448;2023-09-19T10:09:03;3.90;;;2.83;;
28266;SDS011;15525;45.568;5.448;2023-09-19T10:11:48;7.30;;;3.17;;
28266;SDS011;15525;45.568;5.448;2023-09-19T10:14:29;3.83;;;3.22;;
28266;SDS011;15525;45.568;5.448;2023-09-19T10:16:58;4.07;;;3.08;;
28266;SDS011;15525;45.568;5.448;2023-09-19T10:19:29;3.85;;;2.95;;
28266;SDS011;15525;45.568;5.448;2023-09-19T10:21:59;5.43;;;2.67;;
28266;SDS011;15525;45.568;5.448;2023-09-19T10:24:26;5.53;;;2.00;;
28266;SDS011;15525;45.568;5.448;2023-09-19T10:26:53;4.75;;;1.98;;
28266;SDS011;15525;45.568;5.448;2023-09-19T10:29:20;3.75;;;2.00;;
28266;SDS011;15525;45.568;5.448;2023-09-19T10:31:47;3.10;;;2.03;;
28266;SDS011;15525;45.568;5.448;2023-09-19T10:34:16;3.03;;;1.95;;
28266;SDS011;15525;45.568;5.448;2023-09-19T10:36:46;5.00;;;2.08;;
28266;SDS011;15525;45.568;5.448;2023-09-19T10:39:15;4.07;;;2.58;;
28266;SDS011;15525;45.568;5.448;2023-09-19T10:41:47;3.83;;;2.28;;
28266;SDS011;15525;45.568;5.448;2023-09-19T10:44:20;3.28;;;2.10;;
28266;SDS011;15525;45.568;5.448;2023-09-19T10:46:48;3.72;;;2.00;;
28266;SDS011;15525;45.568;5.448;2023-09-19T10:49:14;4.55;;;2.00;;
28266;SDS011;15525;45.568;5.448;2023-09-19T10:51:41;2.50;;;2.30;;
28266;SDS011;15525;45.568;5.448;2023-09-19T10:54:13;4.50;;;2.30;;
28266;SDS011;15525;45.568;5.448;2023-09-19T10:56:46;4.45;;;2.38;;
28266;SDS011;15525;45.568;5.448;2023-09-19T10:59:16;2.75;;;2.10;;
28266;SDS011;15525;45.568;5.448;2023-09-19T11:01:44;3.65;;;2.20;;
28266;SDS011;15525;45.568;5.448;2023-09-19T11:04:22;3.70;;;2.10;;
28266;SDS011;15525;45.568;5.448;2023-09-19T11:07:00;3.50;;;1.90;;
28266;SDS011;15525;45.568;5.448;2023-09-19T11:09:49;2.60;;;1.80;;
28266;SDS011;15525;45.568;5.448;2023-09-19T11:14:57;3.08;;;1.90;;
28266;SDS011;15525;45.568;5.448;2023-09-19T11:30:33;3.78;;;1.90;;
28266;SDS011;15525;45.568;5.448;2023-09-19T11:46:28;2.35;;;1.50;;
28266;SDS011;15525;45.568;5.448;2023-09-19T11:48:55;2.85;;;1.85;;
28266;SDS011;15525;45.568;5.448;2023-09-19T11:51:39;4.63;;;1.70;;
28266;SDS011;15525;45.568;5.448;2023-09-19T11:54:10;3.88;;;1.92;;
28266;SDS011;15525;45.568;5.448;2023-09-19T11:56:42;2.53;;;1.70;;
28266;SDS011;15525;45.568;5.448;2023-09-19T11:59:09;2.55;;;1.80;;
28266;SDS011;15525;45.568;5.448;2023-09-19T12:01:35;1.92;;;1.70;;
28266;SDS011;15525;45.568;5.448;2023-09-19T12:04:08;2.92;;;1.60;;
28266;SDS011;15525;45.568;5.448;2023-09-19T12:06:37;3.10;;;1.88;;
28266;SDS011;15525;45.568;5.448;2023-09-19T12:09:04;2.55;;;1.90;;
28266;SDS011;15525;45.568;5.448;2023-09-19T12:11:40;2.38;;;1.80;;
28266;SDS011;15525;45.568;5.448;2023-09-19T12:14:07;3.00;;;1.85;;
28266;SDS011;15525;45.568;5.448;2023-09-19T12:16:33;2.20;;;2.00;;
28266;SDS011;15525;45.568;5.448;2023-09-19T12:18:59;3.45;;;1.80;;
28266;SDS011;15525;45.568;5.448;2023-09-19T12:21:53;4.88;;;1.63;;
28266;SDS011;15525;45.568;5.448;2023-09-19T12:24:29;3.50;;;1.80;;
28266;SDS011;15525;45.568;5.448;2023-09-19T12:27:05;3.55;;;1.70;;
28266;SDS011;15525;45.568;5.448;2023-09-19T12:29:31;3.15;;;1.80;;
28266;SDS011;15525;45.568;5.448;2023-09-19T12:32:06;4.32;;;2.00;;
28266;SDS011;15525;45.568;5.448;2023-09-19T12:34:32;3.60;;;1.80;;
28266;SDS011;15525;45.568;5.448;2023-09-19T12:37:14;2.10;;;1.70;;
28266;SDS011;15525;45.568;5.448;2023-09-19T12:40:03;2.13;;;1.70;;
28266;SDS011;15525;45.568;5.448;2023-09-19T12:42:42;2.45;;;1.70;;
28266;SDS011;15525;45.568;5.448;2023-09-19T12:45:09;1.70;;;1.52;;
28266;SDS011;15525;45.568;5.448;2023-09-19T12:47:35;3.47;;;1.90;;
28266;SDS011;15525;45.568;5.448;2023-09-19T12:52:45;3.60;;;1.80;;
28266;SDS011;15525;45.568;5.448;2023-09-19T12:55:21;2.57;;;2.10;;
28266;SDS011;15525;45.568;5.448;2023-09-19T12:58:12;1.90;;;1.50;;
28266;SDS011;15525;45.568;5.448;2023-09-19T13:00:39;3.63;;;1.80;;
28266;SDS011;15525;45.568;5.448;2023-09-19T13:03:13;1.70;;;1.60;;
28266;SDS011;15525;45.568;5.448;2023-09-19T13:11:03;3.55;;;1.90;;
28266;SDS011;15525;45.568;5.448;2023-09-19T13:13:44;2.13;;;1.90;;
28266;SDS011;15525;45.568;5.448;2023-09-19T13:16:18;3.03;;;1.75;;
28266;SDS011;15525;45.568;5.448;2023-09-19T13:18:47;2.83;;;1.60;;
28266;SDS011;15525;45.568;5.448;2023-09-19T13:21:16;3.80;;;1.60;;
28266;SDS011;15525;45.568;5.448;2023-09-19T13:23:52;2.42;;;1.65;;
28266;SDS011;15525;45.568;5.448;2023-09-19T13:26:27;1.60;;;1.48;;
28266;SDS011;15525;45.568;5.448;2023-09-19T13:28:56;2.90;;;1.50;;
28266;SDS011;15525;45.568;5.448;2023-09-19T13:31:21;2.35;;;1.33;;
28266;SDS011;15525;45.568;5.448;2023-09-19T13:33:48;2.38;;;1.50;;
28266;SDS011;15525;45.568;5.448;2023-09-19T13:36:14;3.33;;;1.40;;
28266;SDS011;15525;45.568;5.448;2023-09-19T13:38:40;2.35;;;1.48;;
28266;SDS011;15525;45.568;5.448;2023-09-19T13:41:09;3.00;;;1.17;;
28266;SDS011;15525;45.568;5.448;2023-09-19T13:43:36;2.45;;;1.30;;
28266;SDS011;15525;45.568;5.448;2023-09-19T13:46:04;5.47;;;1.40;;
28266;SDS011;15525;45.568;5.448;2023-09-19T13:48:32;1.92;;;1.20;;
28266;SDS011;15525;45.568;5.448;2023-09-19T13:51:01;2.35;;;1.60;;
28266;SDS011;15525;45.568;5.448;2023-09-19T13:53:28;2.17;;;1.38;;
28266;SDS011;15525;45.568;5.448;2023-09-19T13:55:54;2.00;;;1.20;;
28266;SDS011;15525;45.568;5.448;2023-09-19T13:58:19;2.45;;;1.50;;
28266;SDS011;15525;45.568;5.448;2023-09-19T14:00:46;2.05;;;1.20;;
28266;SDS011;15525;45.568;5.448;2023-09-19T14:03:12;4.10;;;1.70;;
28266;SDS011;15525;45.568;5.448;2023-09-19T14:05:37;3.10;;;1.50;;
28266;SDS011;15525;45.568;5.448;2023-09-19T14:08:02;3.53;;;1.60;;
28266;SDS011;15525;45.568;5.448;2023-09-19T14:10:28;3.38;;;1.35;;
28266;SDS011;15525;45.568;5.448;2023-09-19T14:12:56;1.55;;;1.20;;
28266;SDS011;15525;45.568;5.448;2023-09-19T14:15:23;3.83;;;1.50;;
28266;SDS011;15525;45.568;5.448;2023-09-19T14:17:55;2.55;;;1.60;;
28266;SDS011;15525;45.568;5.448;2023-09-19T14:20:25;2.53;;;1.45;;
28266;SDS011;15525;45.568;5.448;2023-09-19T14:22:54;2.28;;;1.70;;
28266;SDS011;15525;45.568;5.448;2023-09-19T14:25:20;1.55;;;1.30;;
28266;SDS011;15525;45.568;5.448;2023-09-19T14:27:46;2.40;;;1.38;;
28266;SDS011;15525;45.568;5.448;2023-09-19T14:30:13;2.60;;;1.58;;
28266;SDS011;15525;45.568;5.448;2023-09-19T14:32:38;1.88;;;1.38;;
28266;SDS011;15525;45.568;5.448;2023-09-19T14:35:04;1.77;;;1.40;;
28266;SDS011;15525;45.568;5.448;2023-09-19T14:37:31;2.75;;;1.55;;
28266;SDS011;15525;45.568;5.448;2023-09-19T14:39:56;2.00;;;1.33;;
28266;SDS011;15525;45.568;5.448;2023-09-19T14:42:21;1.67;;;1.30;;
28266;SDS011;15525;45.568;5.448;2023-09-19T14:44:47;4.53;;;1.45;;
28266;SDS011;15525;45.568;5.448;2023-09-19T14:47:14;1.42;;;1.10;;
28266;SDS011;15525;45.568;5.448;2023-09-19T14:49:41;1.45;;;1.35;;
28266;SDS011;15525;45.568;5.448;2023-09-19T14:52:07;4.15;;;1.83;;
28266;SDS011;15525;45.568;5.448;2023-09-19T14:54:34;1.55;;;1.30;;
28266;SDS011;15525;45.568;5.448;2023-09-19T14:57:00;2.95;;;1.65;;
28266;SDS011;15525;45.568;5.448;2023-09-19T14:59:33;2.47;;;1.52;;
28266;SDS011;15525;45.568;5.448;2023-09-19T15:02:02;3.30;;;1.33;;
28266;SDS011;15525;45.568;5.448;2023-09-19T15:04:28;1.83;;;1.63;;
28266;SDS011;15525;45.568;5.448;2023-09-19T15:06:54;1.50;;;1.40;;
28266;SDS011;15525;45.568;5.448;2023-09-19T15:09:23;1.42;;;1.30;;
28266;SDS011;15525;45.568;5.448;2023-09-19T15:11:51;1.50;;;1.40;;
28266;SDS011;15525;45.568;5.448;2023-09-19T15:14:17;1.60;;;1.25;;
28266;SDS011;15525;45.568;5.448;2023-09-19T15:16:43;1.92;;;1.35;;
28266;SDS011;15525;45.568;5.448;2023-09-19T15:19:09;2.03;;;1.48;;
28266;SDS011;15525;45.568;5.448;2023-09-19T15:21:35;2.58;;;1.35;;
28266;SDS011;15525;45.568;5.448;2023-09-19T15:24:02;3.65;;;1.38;;
28266;SDS011;15525;45.568;5.448;2023-09-19T15:26:28;1.95;;;1.50;;
28266;SDS011;15525;45.568;5.448;2023-09-19T15:28:55;1.95;;;1.30;;
28266;SDS011;15525;45.568;5.448;2023-09-19T15:31:20;1.85;;;1.27;;
28266;SDS011;15525;45.568;5.448;2023-09-19T15:33:46;1.55;;;1.30;;
28266;SDS011;15525;45.568;5.448;2023-09-19T15:36:12;1.63;;;1.20;;
28266;SDS011;15525;45.568;5.448;2023-09-19T15:41:29;1.98;;;1.35;;
28266;SDS011;15525;45.568;5.448;2023-09-19T15:43:56;1.70;;;1.30;;
28266;SDS011;15525;45.568;5.448;2023-09-19T15:46:24;2.05;;;1.30;;
28266;SDS011;15525;45.568;5.448;2023-09-19T15:48:52;1.40;;;1.30;;
28266;SDS011;15525;45.568;5.448;2023-09-19T15:51:18;1.42;;;1.25;;
28266;SDS011;15525;45.568;5.448;2023-09-19T15:53:45;2.13;;;1.33;;